createdAt,value
2017-01-04T00:02:55.022Z,998.362
2017-01-04T00:06:00.375Z,998.374
2017-01-04T00:09:05.743Z,998.258
2017-01-04T00:12:11.244Z,998.374
2017-01-04T00:15:16.593Z,998.348
2017-01-04T00:21:27.529Z,998.222
2017-01-04T00:24:33.969Z,998.180
2017-01-04T00:27:39.253Z,998.258
2017-01-04T00:30:44.462Z,998.283
2017-01-04T00:33:49.841Z,998.275
2017-01-04T00:36:55.143Z,998.221
2017-01-04T00:40:00.612Z,998.198
2017-01-04T00:43:05.849Z,998.255
2017-01-04T00:46:11.196Z,998.277
2017-01-04T00:49:16.435Z,998.238
2017-01-04T00:52:22.126Z,998.326
2017-01-04T00:55:27.730Z,998.223
2017-01-04T00:58:33.116Z,998.200
2017-01-04T01:01:38.750Z,998.123
2017-01-04T01:04:44.215Z,998.147
2017-01-04T01:07:49.951Z,998.151
2017-01-04T01:10:55.587Z,998.191
2017-01-04T01:14:00.552Z,998.118
2017-01-04T01:17:05.863Z,998.039
2017-01-04T01:20:11.206Z,998.084
2017-01-04T01:23:16.667Z,998.022
2017-01-04T01:26:21.969Z,997.954
2017-01-04T01:29:27.711Z,997.964
2017-01-04T01:32:33.086Z,997.911
2017-01-04T01:38:44.067Z,998.079
2017-01-04T01:41:49.820Z,998.008
2017-01-04T01:44:55.676Z,998.107
2017-01-04T01:48:01.358Z,998.148
2017-01-04T01:51:06.684Z,997.964
2017-01-04T01:54:12.280Z,997.897
2017-01-04T01:57:17.762Z,997.927
2017-01-04T02:00:23.026Z,997.900
2017-01-04T02:03:28.189Z,997.857
2017-01-04T02:06:33.217Z,997.836
2017-01-04T02:09:38.590Z,997.815
2017-01-04T02:12:43.843Z,997.777
2017-01-04T02:15:49.602Z,997.812
2017-01-04T02:18:55.307Z,997.823
2017-01-04T02:22:00.648Z,997.683
2017-01-04T02:25:05.927Z,997.583
2017-01-04T02:28:11.213Z,997.420
2017-01-04T02:31:16.449Z,997.423
2017-01-04T02:34:21.746Z,997.334
2017-01-04T02:37:26.005Z,997.313
2017-01-04T02:40:31.299Z,997.201
2017-01-04T02:43:36.474Z,997.078
2017-01-04T02:46:41.824Z,997.106
2017-01-04T02:49:46.950Z,997.051
2017-01-04T02:52:52.292Z,997.025
2017-01-04T02:55:57.410Z,996.961
2017-01-04T02:59:03.117Z,996.908
2017-01-04T03:02:08.491Z,996.843
2017-01-04T03:05:14.257Z,996.676
2017-01-04T03:08:19.520Z,996.630
2017-01-04T03:11:25.298Z,996.573
2017-01-04T03:14:30.154Z,996.337
2017-01-04T03:17:35.987Z,996.361
2017-01-04T03:20:41.646Z,996.294
2017-01-04T03:23:47.219Z,996.264
2017-01-04T03:26:52.928Z,996.306
2017-01-04T03:29:58.135Z,996.250
2017-01-04T03:33:03.474Z,996.206
2017-01-04T03:36:08.542Z,996.152
2017-01-04T03:39:14.198Z,996.132
2017-01-04T03:42:19.548Z,996.007
2017-01-04T03:45:24.876Z,995.906
2017-01-04T03:48:30.267Z,995.884
2017-01-04T03:51:35.640Z,995.775
2017-01-04T03:54:41.445Z,995.647
2017-01-04T03:57:47.259Z,995.589
2017-01-04T04:00:52.580Z,995.553
2017-01-04T04:03:58.339Z,995.616
2017-01-04T04:07:03.567Z,995.688
2017-01-04T04:10:08.960Z,995.711
2017-01-04T04:13:14.298Z,995.719
2017-01-04T04:16:19.298Z,995.665
2017-01-04T04:19:24.730Z,995.595
2017-01-04T04:22:30.278Z,995.557
2017-01-04T04:25:36.076Z,995.462
2017-01-04T04:28:41.377Z,995.286
2017-01-04T04:31:46.585Z,995.191
2017-01-04T04:34:52.318Z,995.259
2017-01-04T04:37:57.793Z,995.281
2017-01-04T04:41:03.470Z,995.216
2017-01-04T04:44:08.783Z,995.215
2017-01-04T04:47:14.178Z,995.153
2017-01-04T04:50:19.426Z,995.036
2017-01-04T04:53:25.044Z,994.933
2017-01-04T04:56:30.314Z,994.922
2017-01-04T04:59:36.677Z,994.784
2017-01-04T05:02:42.334Z,994.778
2017-01-04T05:05:47.771Z,994.746
2017-01-04T05:08:53.036Z,994.826
2017-01-04T05:11:58.444Z,994.910
2017-01-04T05:15:03.923Z,994.848
2017-01-04T05:18:04.508Z,994.709
2017-01-04T05:21:16.309Z,994.652
2017-01-04T05:24:21.590Z,994.559
2017-01-04T05:27:27.040Z,994.479
2017-01-04T05:30:32.248Z,994.421
2017-01-04T05:33:37.686Z,994.294
2017-01-04T05:36:42.922Z,994.343
2017-01-04T05:39:48.345Z,994.122
2017-01-04T05:42:53.921Z,994.220
2017-01-04T05:45:59.297Z,994.067
2017-01-04T05:49:04.490Z,994.108
2017-01-04T05:52:10.145Z,994.078
2017-01-04T05:55:15.452Z,994.045
2017-01-04T05:58:21.256Z,993.979
2017-01-04T06:01:26.619Z,993.965
2017-01-04T06:04:32.414Z,993.941
2017-01-04T06:07:37.764Z,993.914
2017-01-04T06:10:43.232Z,993.870
2017-01-04T06:13:48.640Z,993.786
2017-01-04T06:16:54.099Z,993.788
2017-01-04T06:19:59.547Z,993.835
2017-01-04T06:23:04.837Z,993.750
2017-01-04T06:26:10.516Z,993.709
2017-01-04T06:29:16.165Z,993.655
2017-01-04T06:32:21.510Z,993.571
2017-01-04T06:35:26.851Z,993.529
2017-01-04T06:38:32.030Z,993.430
2017-01-04T06:41:37.331Z,993.467
2017-01-04T06:44:43.026Z,993.521
2017-01-04T06:47:48.515Z,993.490
2017-01-04T06:53:59.431Z,993.503
2017-01-04T06:57:04.735Z,993.560
2017-01-04T07:00:10.144Z,993.556
2017-01-04T07:03:15.495Z,993.766
2017-01-04T07:06:21.345Z,994.119
2017-01-04T07:12:32.074Z,993.907
2017-01-04T07:15:37.796Z,994.068
2017-01-04T07:18:43.111Z,994.335
2017-01-04T07:21:48.512Z,994.472
2017-01-04T07:24:54.318Z,994.448
2017-01-04T07:27:59.581Z,994.490
2017-01-04T07:31:04.945Z,994.597
2017-01-04T07:34:10.405Z,994.532
2017-01-04T07:37:15.764Z,994.567
2017-01-04T07:40:21.070Z,994.590
2017-01-04T07:43:26.495Z,994.716
2017-01-04T07:46:31.814Z,994.717
2017-01-04T07:49:37.206Z,994.706
2017-01-04T07:52:42.609Z,994.760
2017-01-04T07:55:48.691Z,994.910
2017-01-04T08:01:57.689Z,995.003
2017-01-04T08:05:03.382Z,995.004
2017-01-04T08:08:09.035Z,995.046
2017-01-04T08:11:14.439Z,995.092
2017-01-04T08:14:19.865Z,995.112
2017-01-04T08:17:25.400Z,995.226
2017-01-04T08:20:30.838Z,995.307
2017-01-04T08:23:36.112Z,995.395
2017-01-04T08:26:41.921Z,995.400
2017-01-04T08:29:47.343Z,995.461
2017-01-04T08:32:52.800Z,995.510
2017-01-04T08:35:58.130Z,995.450
2017-01-04T08:39:03.490Z,995.442
2017-01-04T08:42:08.641Z,995.486
2017-01-04T08:45:13.943Z,995.476
2017-01-04T08:48:19.336Z,995.482
2017-01-04T08:51:24.594Z,995.541
2017-01-04T08:54:30.795Z,995.555
2017-01-04T08:57:36.139Z,995.544
2017-01-04T09:00:41.650Z,995.621
2017-01-04T09:03:47.098Z,995.698
2017-01-04T09:06:52.294Z,995.698
2017-01-04T09:09:58.150Z,995.792
2017-01-04T09:13:03.344Z,995.811
2017-01-04T09:16:09.139Z,995.788
2017-01-04T09:19:14.596Z,995.841
2017-01-04T09:22:20.329Z,995.826
2017-01-04T09:25:25.736Z,995.901
2017-01-04T09:28:31.457Z,995.947
2017-01-04T09:31:36.937Z,995.821
2017-01-04T09:34:42.291Z,995.856
2017-01-04T09:37:47.783Z,995.872
2017-01-04T09:40:53.172Z,995.934
2017-01-04T09:47:04.107Z,996.578
2017-01-04T09:50:09.868Z,996.921
2017-01-04T09:53:15.511Z,996.739
2017-01-04T09:56:21.104Z,996.582
2017-01-04T09:59:26.490Z,996.697
2017-01-04T10:02:31.807Z,996.769
2017-01-04T10:05:37.128Z,996.689
2017-01-04T10:08:42.379Z,996.648
2017-01-04T10:11:48.109Z,996.688
2017-01-04T10:14:53.408Z,996.788
2017-01-04T10:17:59.101Z,996.839
2017-01-04T10:21:04.388Z,996.864
2017-01-04T10:24:09.732Z,997.009
2017-01-04T10:27:14.909Z,997.152
2017-01-04T10:30:20.136Z,997.219
2017-01-04T10:33:25.449Z,997.285
2017-01-04T10:36:31.299Z,997.318
2017-01-04T10:39:37.016Z,997.417
2017-01-04T10:42:42.446Z,997.525
2017-01-04T10:45:47.900Z,997.545
2017-01-04T10:48:53.343Z,997.608
2017-01-04T10:51:58.661Z,997.655
2017-01-04T10:55:04.126Z,997.702
2017-01-04T11:01:15.187Z,997.753
2017-01-04T11:04:21.025Z,997.878
2017-01-04T11:07:26.380Z,997.753
2017-01-04T11:10:31.823Z,997.832
2017-01-04T11:13:37.205Z,997.972
2017-01-04T11:16:42.463Z,998.019
2017-01-04T11:19:48.197Z,998.075
2017-01-04T11:22:53.574Z,998.180
2017-01-04T11:25:58.886Z,998.231
2017-01-04T11:29:04.292Z,998.328
2017-01-04T11:32:10.084Z,998.413
2017-01-04T11:35:10.780Z,998.469
2017-01-04T11:38:22.186Z,998.613
2017-01-04T11:41:27.610Z,998.647
2017-01-04T11:44:33.475Z,998.695
2017-01-04T11:47:38.661Z,998.766
2017-01-04T11:50:44.427Z,998.842
2017-01-04T11:53:49.518Z,998.957
2017-01-04T11:56:55.273Z,999.070
2017-01-04T12:00:00.773Z,999.224
2017-01-04T12:03:06.607Z,999.275
2017-01-04T12:06:12.187Z,999.244
2017-01-04T12:09:17.938Z,999.400
2017-01-04T12:12:23.757Z,999.496
2017-01-04T12:15:29.423Z,999.589
2017-01-04T12:18:34.830Z,999.693
2017-01-04T12:24:45.765Z,999.893
2017-01-04T12:27:51.440Z,1000.018
2017-01-04T12:30:57.159Z,1000.057
2017-01-04T12:34:02.582Z,1000.177
2017-01-04T12:37:07.892Z,1000.250
2017-01-04T12:40:13.170Z,1000.318
2017-01-04T12:43:18.538Z,1000.372
2017-01-04T12:46:24.134Z,1000.508
2017-01-04T12:49:29.529Z,1000.568
2017-01-04T12:52:34.940Z,1000.608
2017-01-04T12:55:40.696Z,1000.734
2017-01-04T12:58:46.020Z,1000.795
2017-01-04T13:01:51.351Z,1000.874
2017-01-04T13:04:56.962Z,1000.984
2017-01-04T13:08:02.793Z,1001.074
2017-01-04T13:14:14.185Z,1001.235
2017-01-04T13:17:19.559Z,1001.261
2017-01-04T13:20:25.168Z,1001.381
2017-01-04T13:23:30.943Z,1001.535
2017-01-04T13:26:36.148Z,1001.589
2017-01-04T13:29:41.389Z,1001.604
2017-01-04T13:32:46.728Z,1001.625
2017-01-04T13:35:51.807Z,1001.648
2017-01-04T13:38:57.136Z,1001.721
2017-01-04T13:42:02.670Z,1001.798
2017-01-04T13:45:08.051Z,1001.922
2017-01-04T13:48:13.483Z,1001.982
2017-01-04T13:51:18.787Z,1002.072
2017-01-04T13:54:24.149Z,1002.117
2017-01-04T13:57:29.603Z,1002.149
2017-01-04T14:00:35.227Z,1002.262
2017-01-04T14:03:40.715Z,1002.407
2017-01-04T14:06:45.834Z,1002.491
2017-01-04T14:09:50.766Z,1002.619
2017-01-04T14:12:55.995Z,1002.654
2017-01-04T14:16:01.300Z,1002.738
2017-01-04T14:19:06.572Z,1002.753
2017-01-04T14:22:12.331Z,1002.845
2017-01-04T14:25:17.982Z,1002.877
2017-01-04T14:28:23.294Z,1003.009
2017-01-04T14:31:28.880Z,1003.154
2017-01-04T14:37:40.262Z,1003.212
2017-01-04T14:40:45.571Z,1003.355
2017-01-04T14:43:51.247Z,1003.343
2017-01-04T14:46:56.280Z,1003.383
2017-01-04T14:50:01.675Z,1003.498
2017-01-04T14:53:06.876Z,1003.667
2017-01-04T14:56:12.711Z,1003.762
2017-01-04T14:59:17.744Z,1003.718
2017-01-04T15:02:23.109Z,1003.730
2017-01-04T15:05:28.666Z,1003.863
2017-01-04T15:08:34.399Z,1003.890
2017-01-04T15:11:39.662Z,1004.007
2017-01-04T15:14:45.455Z,1004.122
2017-01-04T15:17:50.411Z,1004.216
2017-01-04T15:20:56.198Z,1004.240
2017-01-04T15:24:01.175Z,1004.288
2017-01-04T15:27:06.918Z,1004.308
2017-01-04T15:30:12.313Z,1004.358
2017-01-04T15:31:08.132Z,1004.327
2017-01-04T15:34:11.423Z,1004.386
2017-01-04T15:37:16.546Z,1004.349
2017-01-04T15:40:22.221Z,1004.490
2017-01-04T15:43:27.750Z,1004.507
2017-01-04T15:46:33.420Z,1004.637
2017-01-04T15:49:38.912Z,1004.717
2017-01-04T15:52:44.487Z,1004.708
2017-01-04T15:55:50.013Z,1004.810
2017-01-04T15:58:55.766Z,1004.867
2017-01-04T16:02:01.135Z,1004.900
2017-01-04T16:05:06.451Z,1004.920
2017-01-04T16:08:12.023Z,1004.975
2017-01-04T16:11:17.417Z,1005.075
2017-01-04T16:14:22.569Z,1005.119
2017-01-04T16:17:28.168Z,1005.191
2017-01-04T16:20:33.836Z,1005.213
2017-01-04T16:23:39.130Z,1005.293
2017-01-04T16:26:44.571Z,1005.354
2017-01-04T16:29:49.620Z,1005.419
2017-01-04T16:32:54.992Z,1005.492
2017-01-04T16:39:06.192Z,1005.675
2017-01-04T16:42:11.762Z,1005.717
2017-01-04T16:45:17.076Z,1005.734
2017-01-04T16:48:22.348Z,1005.812
2017-01-04T16:51:27.964Z,1005.889
2017-01-04T16:54:33.230Z,1005.907
2017-01-04T16:57:38.649Z,1005.949
2017-01-04T17:00:43.955Z,1005.962
2017-01-04T17:03:49.258Z,1006.007
2017-01-04T17:06:54.358Z,1006.084
2017-01-04T17:09:59.706Z,1006.129
2017-01-04T17:13:05.443Z,1006.193
2017-01-04T17:16:10.867Z,1006.199
2017-01-04T17:19:16.541Z,1006.317
2017-01-04T17:22:22.065Z,1006.340
2017-01-04T17:25:27.724Z,1006.347
2017-01-04T17:28:33.323Z,1006.382
2017-01-04T17:31:38.481Z,1006.475
2017-01-04T17:34:44.104Z,1006.511
2017-01-04T17:37:49.490Z,1006.579
2017-01-04T17:40:55.084Z,1006.704
2017-01-04T17:44:00.027Z,1006.779
2017-01-04T17:47:05.713Z,1006.846
2017-01-04T17:50:11.359Z,1006.975
2017-01-04T17:53:17.082Z,1007.110
2017-01-04T17:56:22.129Z,1007.201
2017-01-04T17:59:27.601Z,1007.250
2017-01-04T18:02:32.192Z,1007.319
2017-01-04T18:05:37.912Z,1007.387
2017-01-04T18:08:43.109Z,1007.400
2017-01-04T18:11:48.618Z,1007.470
2017-01-04T18:21:05.949Z,1007.654
2017-01-04T18:24:11.348Z,1007.730
2017-01-04T18:27:16.937Z,1007.764
2017-01-04T18:30:23.406Z,1007.787
2017-01-04T18:33:29.711Z,1007.786
2017-01-04T18:36:35.175Z,1007.775
2017-01-04T18:39:40.789Z,1007.779
2017-01-04T18:42:46.137Z,1007.815
2017-01-04T18:45:51.642Z,1007.880
2017-01-04T18:48:56.882Z,1007.992
2017-01-04T18:52:02.118Z,1008.155
2017-01-04T18:55:07.351Z,1008.266
2017-01-04T18:58:12.739Z,1008.365
2017-01-04T19:01:29.596Z,1008.409
2017-01-04T19:04:33.236Z,1008.494
2017-01-04T19:07:38.503Z,1008.538
2017-01-04T19:10:43.820Z,1008.764
2017-01-04T19:13:49.068Z,1009.110
2017-01-04T19:16:54.735Z,1009.287
2017-01-04T19:20:00.336Z,1009.421
2017-01-04T19:26:11.224Z,1009.605
2017-01-04T19:29:16.714Z,1009.704
2017-01-04T19:35:26.968Z,1009.755
2017-01-04T19:38:32.260Z,1009.843
2017-01-04T19:41:37.277Z,1009.907
2017-01-04T19:44:42.527Z,1009.965
2017-01-04T19:47:47.875Z,1010.069
2017-01-04T19:50:53.044Z,1010.083
2017-01-04T19:53:58.683Z,1010.101
2017-01-04T19:57:03.835Z,1010.167
2017-01-04T20:00:09.458Z,1010.267
2017-01-04T20:03:14.767Z,1010.390
2017-01-04T20:06:19.991Z,1010.379
2017-01-04T20:12:30.938Z,1010.487
2017-01-04T20:15:35.678Z,1010.591
2017-01-04T20:21:46.437Z,1010.773
2017-01-04T20:24:51.696Z,1010.820
2017-01-04T20:27:56.975Z,1010.862
2017-01-04T20:37:13.087Z,1011.100
2017-01-04T20:40:18.283Z,1011.217
2017-01-04T20:43:23.624Z,1011.284
2017-01-04T20:46:29.207Z,1011.327
2017-01-04T20:49:34.326Z,1011.377
2017-01-04T20:52:39.310Z,1011.514
2017-01-04T20:55:44.569Z,1011.609
2017-01-04T20:58:49.901Z,1011.730
2017-01-04T21:01:55.513Z,1011.816
2017-01-04T21:05:00.981Z,1011.878
2017-01-04T21:08:06.002Z,1011.994
2017-01-04T21:11:11.589Z,1012.054
2017-01-04T21:14:17.199Z,1012.115
2017-01-04T21:17:22.416Z,1012.196
2017-01-04T21:20:27.561Z,1012.315
2017-01-04T21:23:32.777Z,1012.420
2017-01-04T21:26:37.893Z,1012.474
2017-01-04T21:32:48.466Z,1012.608
2017-01-04T21:35:54.785Z,1012.699
2017-01-04T21:38:59.839Z,1012.757
2017-01-04T21:42:05.532Z,1012.796
2017-01-04T21:45:11.070Z,1012.869
2017-01-04T21:48:16.384Z,1012.977
2017-01-04T21:54:26.975Z,1013.110
2017-01-04T21:57:32.109Z,1013.230
2017-01-04T22:00:36.859Z,1013.339
2017-01-04T22:03:41.953Z,1013.422
2017-01-04T22:06:47.271Z,1013.454
2017-01-04T22:09:52.499Z,1013.504
2017-01-04T22:12:57.582Z,1013.536
2017-01-04T22:16:02.715Z,1013.638
2017-01-04T22:19:07.859Z,1013.713
2017-01-04T22:22:13.477Z,1013.833
2017-01-04T22:25:18.729Z,1013.965
2017-01-04T22:28:24.336Z,1014.061
2017-01-04T22:34:34.434Z,1014.168
2017-01-04T22:37:39.532Z,1014.278
2017-01-04T22:40:44.797Z,1014.363
2017-01-04T22:43:49.876Z,1014.500
2017-01-04T22:46:55.082Z,1014.664
2017-01-04T22:50:00.281Z,1014.721
2017-01-04T22:53:05.403Z,1014.812
2017-01-04T22:56:10.233Z,1014.907
2017-01-04T23:02:21.013Z,1015.067
2017-01-04T23:05:26.390Z,1015.149
2017-01-04T23:08:31.517Z,1015.289
2017-01-04T23:11:36.660Z,1015.385
2017-01-04T23:14:41.892Z,1015.493
2017-01-04T23:17:47.401Z,1015.585
2017-01-04T23:20:52.612Z,1015.620
2017-01-04T23:23:57.669Z,1015.623
2017-01-04T23:27:02.749Z,1015.708
2017-01-04T23:30:08.211Z,1015.796
2017-01-04T23:33:13.660Z,1015.850
2017-01-04T23:36:18.713Z,1015.953
2017-01-04T23:39:23.565Z,1016.065
2017-01-04T23:42:28.696Z,1016.141
2017-01-04T23:45:33.746Z,1016.186
2017-01-04T23:48:39.045Z,1016.229
2017-01-04T23:51:44.613Z,1016.255
2017-01-04T23:54:50.211Z,1016.316
2017-01-04T23:57:55.780Z,1016.419
